createdAt,value
2023-03-22T00:02:05.117Z,5.13
2023-03-22T00:07:13.905Z,4.41
2023-03-22T00:12:23.422Z,4.94
2023-03-22T00:17:33.146Z,4.25
2023-03-22T00:22:42.976Z,5.16
2023-03-22T00:27:51.711Z,5.26
2023-03-22T00:33:00.258Z,4.77
2023-03-22T00:38:12.669Z,4.29
2023-03-22T00:43:12.179Z,5.56
2023-03-22T00:48:22.304Z,6.04
2023-03-22T00:53:20.381Z,4.74
2023-03-22T00:58:30.217Z,3.96
2023-03-22T01:03:38.918Z,3.94
2023-03-22T01:08:47.415Z,4.13
2023-03-22T01:13:57.296Z,4.81
2023-03-22T01:19:06.809Z,4.68
2023-03-22T01:24:15.090Z,5.10
2023-03-22T01:29:24.789Z,5.13
2023-03-22T01:34:33.916Z,5.00
2023-03-22T01:39:44.149Z,5.17
2023-03-22T01:44:43.168Z,6.32
2023-03-22T01:49:52.946Z,4.62
2023-03-22T01:55:01.336Z,4.90
2023-03-22T02:00:12.634Z,5.23
2023-03-22T02:05:11.828Z,5.25
2023-03-22T02:10:20.859Z,4.42
2023-03-22T02:15:29.251Z,5.05
2023-03-22T02:20:38.781Z,5.39
2023-03-22T02:25:46.539Z,4.82
2023-03-22T02:30:54.831Z,4.05
2023-03-22T02:36:03.190Z,4.19
2023-03-22T02:41:13.820Z,4.73
2023-03-22T02:46:12.102Z,7.12
2023-03-22T02:51:22.083Z,4.99
2023-03-22T02:56:21.997Z,5.27
2023-03-22T03:01:31.916Z,5.16
2023-03-22T03:06:41.654Z,5.37
2023-03-22T03:11:53.387Z,4.67
2023-03-22T03:16:52.552Z,4.49
2023-03-22T03:22:00.835Z,4.45
2023-03-22T03:27:11.888Z,5.86
2023-03-22T03:32:12.396Z,6.35
2023-03-22T03:37:11.147Z,6.84
2023-03-22T03:42:20.147Z,6.24
2023-03-22T03:47:29.001Z,5.41
2023-03-22T03:52:37.795Z,5.01
2023-03-22T03:57:45.719Z,5.75
2023-03-22T04:02:55.431Z,4.82
2023-03-22T04:08:03.410Z,6.57
2023-03-22T04:13:16.117Z,5.91
2023-03-22T04:18:17.013Z,6.16
2023-03-22T04:23:18.629Z,5.89
2023-03-22T04:28:18.376Z,5.52
2023-03-22T04:33:27.407Z,5.53
2023-03-22T04:38:36.273Z,5.68
2023-03-22T04:43:46.176Z,5.97
2023-03-22T04:48:47.318Z,6.70
2023-03-22T04:53:56.039Z,6.34
2023-03-22T04:59:06.239Z,7.76
2023-03-22T05:04:05.904Z,6.17
2023-03-22T05:09:14.213Z,8.45
2023-03-22T05:14:23.758Z,6.94
2023-03-22T05:19:34.355Z,7.64
2023-03-22T05:24:28.859Z,6.04
2023-03-22T05:29:39.100Z,6.84
2023-03-22T05:34:37.541Z,8.92
2023-03-22T05:39:48.040Z,7.58
2023-03-22T05:44:47.477Z,8.30
2023-03-22T05:49:55.494Z,7.80
2023-03-22T05:55:05.167Z,7.90
2023-03-22T06:00:15.603Z,8.15
2023-03-22T06:05:15.035Z,7.30
2023-03-22T06:10:16.564Z,7.03
2023-03-22T06:15:26.547Z,6.99
2023-03-22T06:20:35.997Z,7.62
2023-03-22T06:25:46.828Z,7.24
2023-03-22T06:30:50.097Z,7.61
2023-03-22T06:35:50.182Z,7.98
2023-03-22T06:40:48.401Z,7.21
2023-03-22T06:45:57.475Z,6.86
2023-03-22T06:51:05.530Z,8.89
2023-03-22T06:56:15.633Z,8.63
2023-03-22T07:01:16.369Z,13.33
2023-03-22T07:06:15.858Z,7.85
2023-03-22T07:11:25.553Z,8.77
2023-03-22T07:16:34.108Z,8.61
2023-03-22T07:21:42.404Z,8.56
2023-03-22T07:26:53.511Z,7.93
2023-03-22T07:31:53.018Z,8.98
2023-03-22T07:37:03.601Z,7.72
2023-03-22T07:42:01.748Z,7.88
2023-03-22T07:47:11.760Z,8.21
2023-03-22T07:52:10.688Z,7.44
2023-03-22T07:57:15.629Z,7.50
2023-03-22T08:02:25.015Z,8.09
2023-03-22T08:07:33.564Z,8.25
2023-03-22T08:12:42.265Z,8.44
2023-03-22T08:17:50.750Z,6.81
2023-03-22T08:23:01.783Z,7.74
2023-03-22T08:28:02.030Z,6.85
2023-03-22T08:33:01.886Z,6.38
2023-03-22T08:38:12.881Z,6.07
2023-03-22T08:43:12.439Z,5.89
2023-03-22T08:48:21.863Z,6.98
2023-03-22T08:53:32.888Z,5.55
2023-03-22T08:58:32.726Z,4.74
2023-03-22T09:03:41.375Z,5.33
2023-03-22T09:08:50.906Z,4.70
2023-03-22T09:14:00.018Z,4.32
2023-03-22T09:19:10.352Z,4.13
2023-03-22T09:24:09.926Z,3.99
2023-03-22T09:29:19.875Z,6.91
2023-03-22T09:34:28.821Z,4.23
2023-03-22T09:39:37.452Z,4.64
2023-03-22T09:44:45.846Z,4.53
2023-03-22T09:49:56.081Z,3.49
2023-03-22T09:54:55.543Z,2.59
2023-03-22T10:00:04.295Z,2.69
2023-03-22T10:05:14.250Z,4.01
2023-03-22T10:10:23.566Z,4.27
2023-03-22T10:15:33.099Z,2.53
2023-03-22T10:20:44.065Z,4.17
2023-03-22T10:25:42.477Z,2.95
2023-03-22T10:30:52.425Z,3.26
2023-03-22T10:35:51.198Z,7.82
2023-03-22T10:41:00.775Z,5.05
2023-03-22T10:46:09.296Z,3.40
2023-03-22T10:51:20.187Z,2.55
2023-03-22T10:56:19.510Z,2.14
2023-03-22T11:01:29.864Z,2.69
2023-03-22T11:06:27.976Z,7.27
2023-03-22T11:11:36.489Z,5.86
2023-03-22T11:16:45.983Z,2.88
2023-03-22T11:21:54.716Z,2.73
2023-03-22T11:27:05.494Z,2.32
2023-03-22T11:32:04.836Z,2.22
2023-03-22T11:37:15.730Z,2.78
2023-03-22T11:42:23.688Z,2.85
2023-03-22T11:47:22.662Z,2.45
2023-03-22T11:52:31.398Z,2.40
2023-03-22T11:57:39.498Z,2.56
2023-03-22T12:02:48.932Z,3.74
2023-03-22T12:07:59.046Z,2.41
2023-03-22T12:12:57.759Z,3.57
2023-03-22T12:18:08.025Z,3.13
2023-03-22T12:23:14.895Z,1.93
2023-03-22T12:28:23.092Z,2.21
2023-03-22T12:33:33.421Z,3.30
2023-03-22T12:38:32.475Z,2.93
2023-03-22T12:43:41.591Z,3.53
2023-03-22T12:48:49.964Z,3.41
2023-03-22T12:54:00.504Z,3.72
2023-03-22T12:58:59.698Z,3.92
2023-03-22T13:04:08.821Z,4.65
2023-03-22T13:09:20.074Z,4.05
2023-03-22T13:14:19.930Z,4.06
2023-03-22T13:19:29.866Z,3.89
2023-03-22T13:24:41.640Z,4.91
2023-03-22T13:29:41.596Z,3.61
2023-03-22T13:34:52.277Z,3.19
2023-03-22T13:39:50.254Z,5.20
2023-03-22T13:44:59.295Z,3.63
2023-03-22T13:50:08.824Z,4.94
2023-03-22T13:55:20.303Z,4.83
2023-03-22T14:00:20.287Z,3.83
2023-03-22T14:05:26.871Z,3.05
2023-03-22T14:10:36.125Z,3.20
2023-03-22T14:15:46.711Z,3.60
2023-03-22T14:20:46.020Z,2.52
